Carnival Splendor — 3EUS — position and weather

sailwx.info

Track history (hours):
 
Tides and Currents Weather Stations Pressure Air Temp Water Temp Dewpoint Dewpoint Depression Visibility Wind Speed Wind Dir Waves Ship Positions

Carnival Splendor

Last reported at 2014-Oct-24 09:33 UTC. Time now 2014-Oct-24 10:22 UTC.
Position N 40°37' W 074°03'.

Length 289 m; draft 8.3 m.

Type: Ship. MMSI: 372808000.

Date/timePositionNaut miles runAvg speedWind from/ knotsBaromVisibWave heightAir tempDewpointWater temp
2014-Oct-24 09:33N 40°37' W 074°03'1313.1
2014-Oct-24 08:33N 40°28' W 073°50'8 7.6
2014-Oct-24 07:30N 40°20' W 073°47'4415.1
2014-Oct-24 04:33N 39°36' W 073°40'28216.1
2014-Oct-23 11:00N 35°00' W 074°54'   290 / 401010.0 5.4 2.015.0 8.028.0
2014-Oct-17 22:00N 33°00' W 073°00'37820.3 280 / 151010.0 5.4 2.023.015.027.0
2014-Oct-17 03:25N 39°17' W 073°19'1820.7
2014-Oct-17 02:32N 39°36' W 073°19'2020.5
2014-Oct-17 01:34N 39°55' W 073°18'2020.2
2014-Oct-17 00:33N 40°12' W 073°33'1918.9
2014-Oct-16 23:33N 40°27' W 073°48'1313.5
2014-Oct-16 22:33N 40°35' W 074°02'1111.1
2014-Oct-16 21:33N 40°46' W 074°00'0 0.3
2014-Oct-16 20:32N 40°46' W 073°60'0 0.0
2014-Oct-16 19:31N 40°46' W 073°60'0 0.0
2014-Oct-16 18:19N 40°46' W 073°60'0 0.0
2014-Oct-16 17:34N 40°46' W 073°60'0 0.0
2014-Oct-16 16:33N 40°46' W 073°60'0 0.0
2014-Oct-16 15:33N 40°46' W 073°60'0 0.0
2014-Oct-16 14:32N 40°46' W 073°60'0 0.0
2014-Oct-16 13:32N 40°46' W 073°60'0 0.0
2014-Oct-16 12:31N 40°46' W 073°60'0 0.0
2014-Oct-16 11:29N 40°46' W 073°60'1 1.4
2014-Oct-16 10:34N 40°45' W 074°01'7 6.9
2014-Oct-16 09:33N 40°38' W 074°03'1313.2
2014-Oct-16 08:33N 40°28' W 073°52'4313.6
2014-Oct-16 05:22N 40°30' W 072°55'1417.2
2014-Oct-16 04:33N 40°30' W 072°37'1717.0
2014-Oct-16 03:33N 40°31' W 072°14'1717.2
2014-Oct-16 02:33N 40°31' W 071°52'1717.2
2014-Oct-16 01:33N 40°32' W 071°29'1717.3
2014-Oct-16 00:33N 40°32' W 071°06'1717.2
2014-Oct-15 23:33N 40°32' W 070°44'1817.5
2014-Oct-15 22:33N 40°33' W 070°21'1717.1
2014-Oct-15 21:33N 40°33' W 069°58'1716.9
2014-Oct-15 20:33N 40°34' W 069°36'1716.8
2014-Oct-15 19:33N 40°35' W 069°14'1716.9
2014-Oct-15 18:33N 40°37' W 068°52'1817.4
2014-Oct-15 17:33N 40°41' W 068°29'1717.2
2014-Oct-15 16:32N 40°50' W 068°10'1817.8
2014-Oct-15 15:33N 40°59' W 067°50'2017.7
2014-Oct-15 14:24N 41°10' W 067°27'1517.9
2014-Oct-15 13:33N 41°18' W 067°10'6418.1
2014-Oct-15 10:00N 41°48' W 065°54'18817.8 200 / 251023.0 5.4 1.019.012.021.0
2014-Oct-14 23:26N 44°22' W 063°27'1214.0
2014-Oct-14 22:33N 44°34' W 063°32'4 4.3
2014-Oct-14 21:33N 44°38' W 063°34'0 0.0
2014-Oct-14 20:33N 44°38' W 063°34'0 0.0
2014-Oct-14 19:26N 44°38' W 063°34'0 0.0
2014-Oct-14 18:32N 44°38' W 063°34'0 0.0
2014-Oct-14 17:28N 44°38' W 063°34'0 0.0
2014-Oct-14 16:31N 44°38' W 063°34'0 0.0
2014-Oct-14 15:30N 44°38' W 063°34'0 0.0
2014-Oct-14 14:33N 44°38' W 063°34'0 0.0
2014-Oct-14 13:33N 44°38' W 063°34'0 0.3
2014-Oct-14 12:33N 44°38' W 063°34'1111.0
2014-Oct-14 11:33N 44°28' W 063°28'1313.4
2014-Oct-14 10:33N 44°15' W 063°32'  
Track history (hours):
 
Tides and Currents Weather Stations Pressure Air Temp Water Temp Dewpoint Dewpoint Depression Visibility Wind Speed Wind Dir Waves Ship Positions

Carnival Splendor

Last reported at 2014-Oct-24 09:33 UTC. Time now 2014-Oct-24 10:22 UTC.
Position N 40°37' W 074°03'.

Length 289 m; draft 8.3 m.

Type: Ship. MMSI: 372808000.

Date/timePositionNaut miles runAvg speedWind from/ knotsBaromVisibWave heightAir tempDewpointWater temp
2014-Oct-24 09:33N 40°37' W 074°03'1313.1
2014-Oct-24 08:33N 40°28' W 073°50'8 7.6
2014-Oct-24 07:30N 40°20' W 073°47'4415.1
2014-Oct-24 04:33N 39°36' W 073°40'28216.1
2014-Oct-23 11:00N 35°00' W 074°54'   290 / 401010.0 5.4 2.015.0 8.028.0
2014-Oct-17 22:00N 33°00' W 073°00'37820.3 280 / 151010.0 5.4 2.023.015.027.0
2014-Oct-17 03:25N 39°17' W 073°19'1820.7
2014-Oct-17 02:32N 39°36' W 073°19'2020.5
2014-Oct-17 01:34N 39°55' W 073°18'2020.2
2014-Oct-17 00:33N 40°12' W 073°33'1918.9
2014-Oct-16 23:33N 40°27' W 073°48'1313.5
2014-Oct-16 22:33N 40°35' W 074°02'1111.1
2014-Oct-16 21:33N 40°46' W 074°00'0 0.3
2014-Oct-16 20:32N 40°46' W 073°60'0 0.0
2014-Oct-16 19:31N 40°46' W 073°60'0 0.0
2014-Oct-16 18:19N 40°46' W 073°60'0 0.0
2014-Oct-16 17:34N 40°46' W 073°60'0 0.0
2014-Oct-16 16:33N 40°46' W 073°60'0 0.0
2014-Oct-16 15:33N 40°46' W 073°60'0 0.0
2014-Oct-16 14:32N 40°46' W 073°60'0 0.0
2014-Oct-16 13:32N 40°46' W 073°60'0 0.0
2014-Oct-16 12:31N 40°46' W 073°60'0 0.0
2014-Oct-16 11:29N 40°46' W 073°60'1 1.4
2014-Oct-16 10:34N 40°45' W 074°01'7 6.9
2014-Oct-16 09:33N 40°38' W 074°03'1313.2
2014-Oct-16 08:33N 40°28' W 073°52'4313.6
2014-Oct-16 05:22N 40°30' W 072°55'1417.2
2014-Oct-16 04:33N 40°30' W 072°37'1717.0
2014-Oct-16 03:33N 40°31' W 072°14'1717.2
2014-Oct-16 02:33N 40°31' W 071°52'1717.2
2014-Oct-16 01:33N 40°32' W 071°29'1717.3
2014-Oct-16 00:33N 40°32' W 071°06'1717.2
2014-Oct-15 23:33N 40°32' W 070°44'1817.5
2014-Oct-15 22:33N 40°33' W 070°21'1717.1
2014-Oct-15 21:33N 40°33' W 069°58'1716.9
2014-Oct-15 20:33N 40°34' W 069°36'1716.8
2014-Oct-15 19:33N 40°35' W 069°14'1716.9
2014-Oct-15 18:33N 40°37' W 068°52'1817.4
2014-Oct-15 17:33N 40°41' W 068°29'1717.2
2014-Oct-15 16:32N 40°50' W 068°10'1817.8
2014-Oct-15 15:33N 40°59' W 067°50'2017.7
2014-Oct-15 14:24N 41°10' W 067°27'1517.9
2014-Oct-15 13:33N 41°18' W 067°10'6418.1
2014-Oct-15 10:00N 41°48' W 065°54'18817.8 200 / 251023.0 5.4 1.019.012.021.0
2014-Oct-14 23:26N 44°22' W 063°27'1214.0
2014-Oct-14 22:33N 44°34' W 063°32'4 4.3
2014-Oct-14 21:33N 44°38' W 063°34'0 0.0
2014-Oct-14 20:33N 44°38' W 063°34'0 0.0
2014-Oct-14 19:26N 44°38' W 063°34'0 0.0
2014-Oct-14 18:32N 44°38' W 063°34'0 0.0
2014-Oct-14 17:28N 44°38' W 063°34'0 0.0
2014-Oct-14 16:31N 44°38' W 063°34'0 0.0
2014-Oct-14 15:30N 44°38' W 063°34'0 0.0
2014-Oct-14 14:33N 44°38' W 063°34'0 0.0
2014-Oct-14 13:33N 44°38' W 063°34'0 0.3
2014-Oct-14 12:33N 44°38' W 063°34'1111.0
2014-Oct-14 11:33N 44°28' W 063°28'1313.4
2014-Oct-14 10:33N 44°15' W 063°32'  

Dump ship's entire track history